FDX205 UHMA-UHPP
Flight info
| Callsign | FDX205 |
|---|---|
| Flight time | 2h 15m |
| Altitude | 38000 |
| Route | MITKA1V MITKA B244 TUPAN TUPAN5N |
| Aircraft | A339/H-SADE1E2E3GHIJ3J5M1P2RWXY/LB2D1 |
Departure
| Time | 2026-04-28 19:54 |
|---|---|
| Airport | Ugolny Yuri Ryktheu Airport (UHMA) |
Arrival
| Time | 2026-04-28 22:10 |
|---|---|
| Airport | Yelizovo Airport (UHPP) |
| Time | Latitude | Longitude | Altitude | Speed | Heading |
|---|---|---|---|---|---|
| 2026-04-28 19:35 | 64.71509 | 177.74085 | 156 ft | 0 kts | 90° |
| 2026-04-28 19:41 | 64.71403 | 177.73718 | 156 ft | 0 kts | 196° |
| 2026-04-28 19:43 | 64.71402 | 177.73718 | 156 ft | 0 kts | 196° |
| 2026-04-28 19:48 | 64.71413 | 177.73724 | 156 ft | 2 kts | 206° |
| 2026-04-28 19:48 | 64.71425 | 177.73738 | 156 ft | 2 kts | 219° |
| 2026-04-28 19:48 | 64.71436 | 177.73759 | 156 ft | 2 kts | 233° |
| 2026-04-28 19:48 | 64.71445 | 177.73791 | 156 ft | 4 kts | 241° |
| 2026-04-28 19:49 | 64.71460 | 177.73848 | 156 ft | 4 kts | 235° |
| 2026-04-28 19:49 | 64.71471 | 177.73903 | 156 ft | 0 kts | 260° |
| 2026-04-28 19:51 | 64.71471 | 177.73902 | 156 ft | 0 kts | 260° |
| 2026-04-28 19:51 | 64.71474 | 177.73856 | 156 ft | 7 kts | 277° |
| 2026-04-28 19:52 | 64.71530 | 177.73741 | 156 ft | 11 kts | 353° |
| 2026-04-28 19:52 | 64.71596 | 177.73778 | 156 ft | 14 kts | 355° |
| 2026-04-28 19:52 | 64.71718 | 177.73570 | 156 ft | 27 kts | 321° |
| 2026-04-28 19:52 | 64.71875 | 177.73378 | 156 ft | 24 kts | 335° |
| 2026-04-28 19:53 | 64.72001 | 177.73320 | 160 ft | 13 kts | 338° |
| 2026-04-28 19:53 | 64.72036 | 177.73280 | 160 ft | 4 kts | 359° |
| 2026-04-28 19:53 | 64.72075 | 177.73290 | 159 ft | 12 kts | 6° |
| 2026-04-28 19:53 | 64.72391 | 177.73474 | 162 ft | 87 kts | 14° |
| 2026-04-28 19:54 | 64.73213 | 177.73975 | 184 ft | 153 kts | 14° |
| 2026-04-28 19:54 | 64.74331 | 177.74629 | 640 ft | 171 kts | 11° |
| 2026-04-28 19:54 | 64.75556 | 177.75279 | 1237 ft | 190 kts | 12° |
| 2026-04-28 19:54 | 64.76903 | 177.75939 | 1859 ft | 202 kts | 11° |
| 2026-04-28 19:55 | 64.78290 | 177.75665 | 2649 ft | 206 kts | 338° |
| 2026-04-28 19:55 | 64.79355 | 177.73284 | 3200 ft | 227 kts | 297° |
| 2026-04-28 19:55 | 64.79585 | 177.69507 | 3713 ft | 246 kts | 266° |
| 2026-04-28 19:55 | 64.79041 | 177.65559 | 4124 ft | 265 kts | 240° |
| 2026-04-28 19:56 | 64.77965 | 177.61988 | 4739 ft | 271 kts | 231° |
| 2026-04-28 19:56 | 64.76736 | 177.58594 | 5455 ft | 274 kts | 229° |
| 2026-04-28 19:56 | 64.75485 | 177.55203 | 6180 ft | 277 kts | 229° |
| 2026-04-28 19:56 | 64.74241 | 177.51736 | 6866 ft | 279 kts | 230° |
| 2026-04-28 19:57 | 64.73006 | 177.48192 | 7593 ft | 282 kts | 230° |
| 2026-04-28 19:57 | 64.71777 | 177.44602 | 8315 ft | 284 kts | 230° |
| 2026-04-28 19:57 | 64.70539 | 177.40962 | 9036 ft | 287 kts | 230° |
| 2026-04-28 19:57 | 64.69293 | 177.37297 | 9779 ft | 290 kts | 230° |
| 2026-04-28 19:58 | 64.68017 | 177.33556 | 10226 ft | 302 kts | 230° |
| 2026-04-28 19:58 | 64.66663 | 177.29601 | 10423 ft | 322 kts | 230° |
| 2026-04-28 19:58 | 64.65222 | 177.25405 | 10675 ft | 338 kts | 230° |
| 2026-04-28 19:58 | 64.63742 | 177.21096 | 11250 ft | 343 kts | 230° |
| 2026-04-28 19:59 | 64.62244 | 177.16742 | 11858 ft | 346 kts | 230° |
| 2026-04-28 19:59 | 64.60726 | 177.12341 | 12461 ft | 350 kts | 230° |
| 2026-04-28 19:59 | 64.59209 | 177.07951 | 13069 ft | 354 kts | 230° |
| 2026-04-28 19:59 | 64.57635 | 177.03407 | 13674 ft | 358 kts | 230° |
| 2026-04-28 20:00 | 64.56083 | 176.98935 | 14212 ft | 361 kts | 230° |
| 2026-04-28 20:00 | 64.54495 | 176.94371 | 14755 ft | 365 kts | 230° |
| 2026-04-28 20:00 | 64.52889 | 176.89765 | 15313 ft | 368 kts | 230° |
| 2026-04-28 20:00 | 64.51271 | 176.85134 | 15844 ft | 371 kts | 230° |
| 2026-04-28 20:01 | 64.49636 | 176.80464 | 16385 ft | 374 kts | 230° |
| 2026-04-28 20:01 | 64.47986 | 176.75760 | 16943 ft | 377 kts | 230° |
| 2026-04-28 20:01 | 64.46322 | 176.71029 | 17479 ft | 381 kts | 230° |
| 2026-04-28 20:01 | 64.44641 | 176.66256 | 18025 ft | 384 kts | 230° |
| 2026-04-28 20:02 | 64.42944 | 176.61449 | 18500 ft | 387 kts | 230° |
| 2026-04-28 20:02 | 64.41231 | 176.56607 | 18983 ft | 390 kts | 230° |
| 2026-04-28 20:02 | 64.39507 | 176.51746 | 19459 ft | 393 kts | 230° |
| 2026-04-28 20:02 | 64.37765 | 176.46844 | 19932 ft | 396 kts | 230° |
| 2026-04-28 20:03 | 64.36005 | 176.41906 | 20415 ft | 399 kts | 230° |
| 2026-04-28 20:03 | 64.34232 | 176.36939 | 20909 ft | 402 kts | 230° |
| 2026-04-28 20:03 | 64.32443 | 176.31937 | 21390 ft | 406 kts | 230° |
| 2026-04-28 20:03 | 64.30640 | 176.26910 | 21873 ft | 409 kts | 230° |
| 2026-04-28 20:04 | 64.28820 | 176.21846 | 22364 ft | 412 kts | 230° |
| 2026-04-28 20:04 | 64.27051 | 176.16638 | 22821 ft | 415 kts | 234° |
| 2026-04-28 20:04 | 64.25400 | 176.11156 | 23306 ft | 418 kts | 235° |
| 2026-04-28 20:04 | 64.23751 | 176.05620 | 23745 ft | 421 kts | 235° |
| 2026-04-28 20:05 | 64.22084 | 176.00047 | 24167 ft | 424 kts | 235° |
| 2026-04-28 20:05 | 64.20393 | 175.94434 | 24577 ft | 427 kts | 235° |
| 2026-04-28 20:05 | 64.18836 | 175.89298 | 24942 ft | 430 kts | 235° |
| 2026-04-28 20:05 | 64.18189 | 175.87174 | 25077 ft | 429 kts | 235° |
| 2026-04-28 20:06 | 64.16469 | 175.81542 | 25244 ft | 434 kts | 235° |
| 2026-04-28 20:06 | 64.14735 | 175.75869 | 25680 ft | 436 kts | 235° |
| 2026-04-28 20:06 | 64.12988 | 175.70166 | 26079 ft | 439 kts | 235° |
| 2026-04-28 20:06 | 64.11226 | 175.64430 | 26452 ft | 442 kts | 235° |
| 2026-04-28 20:07 | 64.09447 | 175.58652 | 26831 ft | 446 kts | 235° |
| 2026-04-28 20:07 | 64.08263 | 175.54817 | 27096 ft | 447 kts | 235° |
| 2026-04-28 20:07 | 64.05846 | 175.47011 | 27607 ft | 452 kts | 235° |
| 2026-04-28 20:07 | 64.04027 | 175.41154 | 27971 ft | 455 kts | 235° |
| 2026-04-28 20:08 | 64.02188 | 175.35245 | 28328 ft | 458 kts | 235° |
| 2026-04-28 20:08 | 64.00335 | 175.29311 | 28683 ft | 461 kts | 235° |
| 2026-04-28 20:08 | 63.98469 | 175.23350 | 29040 ft | 464 kts | 235° |
| 2026-04-28 20:08 | 63.96589 | 175.17361 | 29382 ft | 466 kts | 235° |
| 2026-04-28 20:09 | 63.94696 | 175.11345 | 29736 ft | 469 kts | 235° |
| 2026-04-28 20:09 | 63.92788 | 175.05297 | 30059 ft | 472 kts | 235° |
| 2026-04-28 20:09 | 63.90865 | 174.99221 | 30424 ft | 474 kts | 235° |
| 2026-04-28 20:09 | 63.88938 | 174.93144 | 30769 ft | 475 kts | 235° |
| 2026-04-28 20:10 | 63.86998 | 174.87042 | 31086 ft | 478 kts | 234° |
| 2026-04-28 20:10 | 63.85046 | 174.80926 | 31406 ft | 480 kts | 234° |
| 2026-04-28 20:10 | 63.83083 | 174.74788 | 31739 ft | 482 kts | 234° |
| 2026-04-28 20:10 | 63.81111 | 174.68636 | 32066 ft | 483 kts | 234° |
| 2026-04-28 20:11 | 63.79128 | 174.62469 | 32363 ft | 485 kts | 234° |
| 2026-04-28 20:11 | 63.77137 | 174.56292 | 32643 ft | 487 kts | 234° |
| 2026-04-28 20:11 | 63.75162 | 174.50181 | 32877 ft | 489 kts | 234° |
| 2026-04-28 20:11 | 63.73150 | 174.43973 | 33075 ft | 491 kts | 234° |
| 2026-04-28 20:12 | 63.71130 | 174.37760 | 33267 ft | 492 kts | 234° |
| 2026-04-28 20:12 | 63.69099 | 174.31529 | 33449 ft | 493 kts | 234° |
| 2026-04-28 20:12 | 63.67065 | 174.25305 | 33674 ft | 493 kts | 234° |
| 2026-04-28 20:12 | 63.65690 | 174.21108 | 33830 ft | 493 kts | 234° |
| 2026-04-28 20:13 | 63.63650 | 174.14896 | 34027 ft | 493 kts | 234° |
| 2026-04-28 20:13 | 63.61613 | 174.08708 | 34214 ft | 493 kts | 234° |
| 2026-04-28 20:13 | 63.59572 | 174.02525 | 34373 ft | 493 kts | 233° |
| 2026-04-28 20:13 | 63.57525 | 173.96341 | 34535 ft | 493 kts | 233° |
| 2026-04-28 20:14 | 63.55476 | 173.90169 | 34721 ft | 493 kts | 233° |
| 2026-04-28 20:14 | 63.53424 | 173.84006 | 34909 ft | 493 kts | 233° |
| 2026-04-28 20:14 | 63.51372 | 173.77860 | 35077 ft | 493 kts | 233° |
| 2026-04-28 20:14 | 63.49314 | 173.71710 | 35244 ft | 493 kts | 233° |
| 2026-04-28 20:15 | 63.47256 | 173.65577 | 35406 ft | 493 kts | 233° |
| 2026-04-28 20:15 | 63.45191 | 173.59439 | 35557 ft | 494 kts | 233° |
| 2026-04-28 20:15 | 63.43126 | 173.53319 | 35736 ft | 493 kts | 233° |
| 2026-04-28 20:15 | 63.41058 | 173.47207 | 35902 ft | 494 kts | 233° |
| 2026-04-28 20:16 | 63.38986 | 173.41103 | 36063 ft | 494 kts | 233° |
| 2026-04-28 20:16 | 63.36911 | 173.35000 | 36215 ft | 494 kts | 233° |
| 2026-04-28 20:16 | 63.34832 | 173.28900 | 36357 ft | 494 kts | 233° |
| 2026-04-28 20:16 | 63.32746 | 173.22809 | 36509 ft | 495 kts | 233° |
| 2026-04-28 20:17 | 63.30659 | 173.16726 | 36665 ft | 495 kts | 233° |
| 2026-04-28 20:17 | 63.28568 | 173.10646 | 36831 ft | 495 kts | 233° |
| 2026-04-28 20:17 | 63.26473 | 173.04572 | 36977 ft | 495 kts | 233° |
| 2026-04-28 20:17 | 63.24376 | 172.98509 | 37120 ft | 495 kts | 233° |
| 2026-04-28 20:18 | 63.22275 | 172.92449 | 37284 ft | 495 kts | 233° |
| 2026-04-28 20:18 | 63.20171 | 172.86398 | 37430 ft | 496 kts | 233° |
| 2026-04-28 20:18 | 63.18065 | 172.80355 | 37588 ft | 496 kts | 232° |
| 2026-04-28 20:18 | 63.15956 | 172.74321 | 37754 ft | 496 kts | 232° |
| 2026-04-28 20:19 | 63.13873 | 172.68379 | 37908 ft | 496 kts | 232° |
| 2026-04-28 20:19 | 63.09646 | 172.56367 | 37908 ft | 494 kts | 232° |
| 2026-04-28 20:20 | 63.05421 | 172.44423 | 37908 ft | 494 kts | 232° |
| 2026-04-28 20:20 | 63.01190 | 172.32527 | 37905 ft | 492 kts | 232° |
| 2026-04-28 20:21 | 62.96963 | 172.20703 | 37907 ft | 491 kts | 232° |
| 2026-04-28 20:21 | 62.92727 | 172.08915 | 37906 ft | 491 kts | 232° |
| 2026-04-28 20:22 | 62.88492 | 171.97193 | 37908 ft | 490 kts | 232° |
| 2026-04-28 20:22 | 62.84252 | 171.85514 | 37908 ft | 489 kts | 232° |
| 2026-04-28 20:23 | 62.79999 | 171.73900 | 37909 ft | 489 kts | 231° |
| 2026-04-28 20:23 | 62.75738 | 171.62329 | 37905 ft | 488 kts | 231° |
| 2026-04-28 20:24 | 62.71475 | 171.50806 | 37903 ft | 488 kts | 231° |
| 2026-04-28 20:24 | 62.67205 | 171.39325 | 37903 ft | 488 kts | 231° |
| 2026-04-28 20:25 | 62.62923 | 171.27871 | 37902 ft | 488 kts | 231° |
| 2026-04-28 20:25 | 62.58633 | 171.16451 | 37899 ft | 488 kts | 231° |
| 2026-04-28 20:26 | 62.54336 | 171.05072 | 37896 ft | 488 kts | 231° |
| 2026-04-28 20:26 | 62.50021 | 170.93702 | 37894 ft | 488 kts | 231° |
| 2026-04-28 20:27 | 62.45696 | 170.82363 | 37895 ft | 489 kts | 231° |
| 2026-04-28 20:27 | 62.41359 | 170.71049 | 37897 ft | 489 kts | 231° |
| 2026-04-28 20:28 | 62.37008 | 170.59752 | 37887 ft | 490 kts | 230° |
| 2026-04-28 20:28 | 62.32676 | 170.48564 | 37888 ft | 490 kts | 230° |
| 2026-04-28 20:29 | 62.28300 | 170.37318 | 37891 ft | 490 kts | 230° |
| 2026-04-28 20:29 | 62.23914 | 170.26104 | 37882 ft | 491 kts | 230° |
| 2026-04-28 20:30 | 62.19520 | 170.14924 | 37889 ft | 490 kts | 230° |
| 2026-04-28 20:30 | 62.15121 | 170.03786 | 37878 ft | 489 kts | 230° |
| 2026-04-28 20:31 | 62.10719 | 169.92696 | 37881 ft | 488 kts | 230° |
| 2026-04-28 20:31 | 62.06324 | 169.81673 | 37876 ft | 487 kts | 230° |
| 2026-04-28 20:32 | 62.01904 | 169.70722 | 37868 ft | 486 kts | 229° |
| 2026-04-28 20:32 | 61.97435 | 169.59882 | 37853 ft | 490 kts | 229° |
| 2026-04-28 20:33 | 61.92955 | 169.49026 | 37848 ft | 494 kts | 229° |
| 2026-04-28 20:33 | 61.88411 | 169.38053 | 37849 ft | 496 kts | 229° |
| 2026-04-28 20:34 | 61.85128 | 169.30168 | 37845 ft | 493 kts | 229° |
| 2026-04-28 20:34 | 61.80567 | 169.19250 | 37844 ft | 496 kts | 229° |
| 2026-04-28 20:35 | 61.75981 | 169.08322 | 37836 ft | 498 kts | 228° |
| 2026-04-28 20:35 | 61.71371 | 168.97391 | 37840 ft | 499 kts | 228° |
| 2026-04-28 20:36 | 61.66747 | 168.86485 | 37832 ft | 500 kts | 228° |
| 2026-04-28 20:36 | 61.62107 | 168.75591 | 37829 ft | 500 kts | 228° |
| 2026-04-28 20:37 | 61.57462 | 168.64740 | 37830 ft | 499 kts | 228° |
| 2026-04-28 20:37 | 61.52808 | 168.53923 | 37829 ft | 499 kts | 228° |
| 2026-04-28 20:38 | 61.48153 | 168.43151 | 37828 ft | 499 kts | 228° |
| 2026-04-28 20:38 | 61.43491 | 168.32417 | 37826 ft | 498 kts | 227° |
| 2026-04-28 20:39 | 61.38822 | 168.21720 | 37826 ft | 498 kts | 227° |
| 2026-04-28 20:39 | 61.34153 | 168.11070 | 37827 ft | 498 kts | 227° |
| 2026-04-28 20:40 | 61.29473 | 168.00449 | 37824 ft | 498 kts | 227° |
| 2026-04-28 20:40 | 61.24786 | 167.89860 | 37825 ft | 498 kts | 227° |
| 2026-04-28 20:41 | 61.20090 | 167.79304 | 37822 ft | 497 kts | 227° |
| 2026-04-28 20:41 | 61.15388 | 167.68781 | 37824 ft | 497 kts | 227° |
| 2026-04-28 20:42 | 61.10680 | 167.58294 | 37823 ft | 497 kts | 227° |
| 2026-04-28 20:42 | 61.05963 | 167.47839 | 37824 ft | 497 kts | 227° |
| 2026-04-28 20:43 | 61.01238 | 167.37413 | 37820 ft | 497 kts | 227° |
| 2026-04-28 20:43 | 60.96538 | 167.27090 | 37820 ft | 497 kts | 226° |
| 2026-04-28 20:44 | 60.91798 | 167.16731 | 37823 ft | 497 kts | 226° |
| 2026-04-28 20:44 | 60.87056 | 167.06413 | 37819 ft | 497 kts | 226° |
| 2026-04-28 20:45 | 60.82307 | 166.96127 | 37821 ft | 496 kts | 226° |
| 2026-04-28 20:45 | 60.77551 | 166.85875 | 37820 ft | 496 kts | 226° |
| 2026-04-28 20:46 | 60.72795 | 166.75665 | 37820 ft | 496 kts | 226° |
| 2026-04-28 20:46 | 60.67988 | 166.65554 | 37818 ft | 496 kts | 224° |
| 2026-04-28 20:47 | 60.63144 | 166.55559 | 37816 ft | 496 kts | 225° |
| 2026-04-28 20:47 | 60.58316 | 166.45542 | 37819 ft | 496 kts | 225° |
| 2026-04-28 20:48 | 60.53466 | 166.35580 | 37816 ft | 496 kts | 225° |
| 2026-04-28 20:48 | 60.48603 | 166.25655 | 37814 ft | 496 kts | 225° |
| 2026-04-28 20:49 | 60.43735 | 166.15767 | 37814 ft | 495 kts | 225° |
| 2026-04-28 20:49 | 60.38793 | 166.06058 | 37814 ft | 495 kts | 220° |
| 2026-04-28 20:50 | 60.33148 | 165.98152 | 37813 ft | 494 kts | 208° |
| 2026-04-28 20:50 | 60.26930 | 165.92270 | 37807 ft | 494 kts | 204° |
| 2026-04-28 20:51 | 60.20680 | 165.86548 | 37808 ft | 493 kts | 204° |
| 2026-04-28 20:51 | 60.14481 | 165.80844 | 37805 ft | 493 kts | 204° |
| 2026-04-28 20:52 | 60.08239 | 165.75117 | 37802 ft | 493 kts | 204° |
| 2026-04-28 20:52 | 60.01999 | 165.69417 | 37800 ft | 493 kts | 204° |
| 2026-04-28 20:53 | 59.92623 | 165.60973 | 37795 ft | 492 kts | 204° |
| 2026-04-28 20:53 | 59.86353 | 165.55475 | 37792 ft | 492 kts | 204° |
| 2026-04-28 20:54 | 59.80092 | 165.49982 | 37791 ft | 492 kts | 204° |
| 2026-04-28 20:54 | 59.73830 | 165.44504 | 37784 ft | 492 kts | 203° |
| 2026-04-28 20:55 | 59.67568 | 165.39049 | 37781 ft | 492 kts | 203° |
| 2026-04-28 20:55 | 59.61301 | 165.33612 | 37777 ft | 492 kts | 203° |
| 2026-04-28 20:56 | 59.55038 | 165.28201 | 37774 ft | 492 kts | 203° |
| 2026-04-28 20:56 | 59.48770 | 165.22808 | 37772 ft | 492 kts | 203° |
| 2026-04-28 20:57 | 59.42502 | 165.17436 | 37768 ft | 492 kts | 203° |
| 2026-04-28 20:57 | 59.36228 | 165.12081 | 37767 ft | 492 kts | 203° |
| 2026-04-28 20:58 | 59.31012 | 165.07647 | 37763 ft | 492 kts | 203° |
| 2026-04-28 20:58 | 59.24737 | 165.02331 | 37760 ft | 491 kts | 203° |
| 2026-04-28 20:59 | 59.18456 | 164.97031 | 37762 ft | 491 kts | 203° |
| 2026-04-28 20:59 | 59.12183 | 164.91759 | 37755 ft | 491 kts | 203° |
| 2026-04-28 21:00 | 59.05906 | 164.86505 | 37759 ft | 491 kts | 203° |
| 2026-04-28 21:00 | 58.99627 | 164.81270 | 37758 ft | 491 kts | 203° |
| 2026-04-28 21:01 | 58.93348 | 164.76055 | 37755 ft | 491 kts | 203° |
| 2026-04-28 21:01 | 58.87074 | 164.70867 | 37756 ft | 490 kts | 203° |
| 2026-04-28 21:02 | 58.80805 | 164.65701 | 37752 ft | 490 kts | 203° |
| 2026-04-28 21:02 | 58.74539 | 164.60561 | 37749 ft | 489 kts | 203° |
| 2026-04-28 21:03 | 58.68315 | 164.55473 | 37754 ft | 489 kts | 203° |
| 2026-04-28 21:03 | 58.62049 | 164.50372 | 37754 ft | 489 kts | 203° |
| 2026-04-28 21:04 | 58.55792 | 164.45297 | 37755 ft | 488 kts | 203° |
| 2026-04-28 21:04 | 58.49533 | 164.40241 | 37754 ft | 488 kts | 203° |
| 2026-04-28 21:05 | 58.43288 | 164.35216 | 37758 ft | 487 kts | 203° |
| 2026-04-28 21:05 | 58.37040 | 164.30206 | 37757 ft | 486 kts | 203° |
| 2026-04-28 21:06 | 58.30807 | 164.25230 | 37758 ft | 486 kts | 203° |
| 2026-04-28 21:06 | 58.24573 | 164.20272 | 37760 ft | 485 kts | 203° |
| 2026-04-28 21:07 | 58.18346 | 164.15337 | 37760 ft | 485 kts | 203° |
| 2026-04-28 21:07 | 58.12121 | 164.10419 | 37764 ft | 484 kts | 203° |
| 2026-04-28 21:08 | 58.05899 | 164.05526 | 37767 ft | 484 kts | 203° |
| 2026-04-28 21:08 | 57.99722 | 164.00687 | 37770 ft | 484 kts | 203° |
| 2026-04-28 21:09 | 57.93502 | 163.95832 | 37769 ft | 484 kts | 203° |
| 2026-04-28 21:09 | 57.87277 | 163.90992 | 37769 ft | 484 kts | 203° |
| 2026-04-28 21:10 | 57.81048 | 163.86166 | 37770 ft | 484 kts | 203° |
| 2026-04-28 21:10 | 57.74816 | 163.81357 | 37775 ft | 484 kts | 203° |
| 2026-04-28 21:11 | 57.68581 | 163.76560 | 37776 ft | 485 kts | 203° |
| 2026-04-28 21:11 | 57.62347 | 163.71777 | 37780 ft | 485 kts | 203° |
| 2026-04-28 21:12 | 57.56102 | 163.67016 | 37774 ft | 485 kts | 203° |
| 2026-04-28 21:12 | 57.49860 | 163.62273 | 37779 ft | 485 kts | 203° |
| 2026-04-28 21:13 | 57.43655 | 163.57572 | 37780 ft | 484 kts | 203° |
| 2026-04-28 21:13 | 57.37415 | 163.52860 | 37782 ft | 484 kts | 203° |
| 2026-04-28 21:14 | 57.31173 | 163.48166 | 37787 ft | 484 kts | 203° |
| 2026-04-28 21:14 | 57.24935 | 163.43492 | 37785 ft | 484 kts | 203° |
| 2026-04-28 21:15 | 57.18701 | 163.38838 | 37780 ft | 483 kts | 203° |
| 2026-04-28 21:15 | 57.12464 | 163.34199 | 37784 ft | 483 kts | 203° |
| 2026-04-28 21:16 | 57.06233 | 163.29581 | 37785 ft | 483 kts | 203° |
| 2026-04-28 21:16 | 57.00005 | 163.24981 | 37786 ft | 482 kts | 203° |
| 2026-04-28 21:17 | 56.93777 | 163.20399 | 37784 ft | 482 kts | 203° |
| 2026-04-28 21:17 | 56.87553 | 163.15836 | 37789 ft | 482 kts | 203° |
| 2026-04-28 21:18 | 56.81328 | 163.11289 | 37789 ft | 482 kts | 203° |
| 2026-04-28 21:18 | 56.75104 | 163.06757 | 37785 ft | 481 kts | 203° |
| 2026-04-28 21:19 | 56.68883 | 163.02240 | 37787 ft | 481 kts | 203° |
| 2026-04-28 21:19 | 56.62667 | 162.97717 | 37798 ft | 481 kts | 203° |
| 2026-04-28 21:20 | 56.56449 | 162.93205 | 37787 ft | 481 kts | 203° |
| 2026-04-28 21:20 | 56.50236 | 162.88716 | 37791 ft | 481 kts | 203° |
| 2026-04-28 21:21 | 56.44057 | 162.84269 | 37792 ft | 481 kts | 203° |
| 2026-04-28 21:21 | 56.37841 | 162.79810 | 37787 ft | 481 kts | 203° |
| 2026-04-28 21:22 | 56.31625 | 162.75367 | 37779 ft | 481 kts | 203° |
| 2026-04-28 21:22 | 56.26417 | 162.71623 | 37786 ft | 480 kts | 205° |
| 2026-04-28 21:23 | 56.19719 | 162.64711 | 37788 ft | 477 kts | 218° |
| 2026-04-28 21:23 | 56.14646 | 162.57046 | 37787 ft | 477 kts | 222° |
| 2026-04-28 21:24 | 56.09620 | 162.49297 | 37801 ft | 477 kts | 221° |
| 2026-04-28 21:24 | 56.04564 | 162.41605 | 37795 ft | 477 kts | 221° |
| 2026-04-28 21:25 | 55.99495 | 162.33938 | 37795 ft | 477 kts | 221° |
| 2026-04-28 21:25 | 55.94419 | 162.26285 | 37798 ft | 477 kts | 221° |
| 2026-04-28 21:26 | 55.89341 | 162.18655 | 37772 ft | 478 kts | 221° |
| 2026-04-28 21:26 | 55.84254 | 162.11040 | 37786 ft | 478 kts | 221° |
| 2026-04-28 21:27 | 55.79167 | 162.03449 | 37797 ft | 477 kts | 221° |
| 2026-04-28 21:27 | 55.74078 | 161.95881 | 37802 ft | 477 kts | 221° |
| 2026-04-28 21:28 | 55.68980 | 161.88328 | 37794 ft | 477 kts | 221° |
| 2026-04-28 21:28 | 55.63881 | 161.80800 | 37789 ft | 477 kts | 221° |
| 2026-04-28 21:29 | 55.58815 | 161.73346 | 37793 ft | 477 kts | 221° |
| 2026-04-28 21:29 | 55.53679 | 161.65816 | 37794 ft | 476 kts | 220° |
| 2026-04-28 21:30 | 55.48578 | 161.58363 | 37792 ft | 476 kts | 220° |
| 2026-04-28 21:30 | 55.43508 | 161.50981 | 37795 ft | 476 kts | 220° |
| 2026-04-28 21:31 | 55.38406 | 161.43546 | 37796 ft | 476 kts | 221° |
| 2026-04-28 21:31 | 55.33319 | 161.36108 | 37795 ft | 476 kts | 221° |
| 2026-04-28 21:32 | 55.28206 | 161.28727 | 37797 ft | 476 kts | 220° |
| 2026-04-28 21:32 | 55.23082 | 161.21381 | 37797 ft | 476 kts | 220° |
| 2026-04-28 21:33 | 55.17965 | 161.14072 | 37641 ft | 472 kts | 220° |
| 2026-04-28 21:33 | 55.15421 | 161.10448 | 37002 ft | 471 kts | 221° |
| 2026-04-28 21:33 | 55.12890 | 161.06849 | 36388 ft | 466 kts | 221° |
| 2026-04-28 21:34 | 55.10395 | 161.03309 | 35831 ft | 459 kts | 221° |
| 2026-04-28 21:34 | 55.07967 | 160.99869 | 35289 ft | 452 kts | 221° |
| 2026-04-28 21:34 | 55.05545 | 160.96442 | 34811 ft | 446 kts | 221° |
| 2026-04-28 21:34 | 55.03151 | 160.93060 | 34376 ft | 440 kts | 222° |
| 2026-04-28 21:35 | 55.00787 | 160.89724 | 33989 ft | 434 kts | 222° |
| 2026-04-28 21:35 | 54.98454 | 160.86436 | 33579 ft | 429 kts | 222° |
| 2026-04-28 21:35 | 54.96122 | 160.83151 | 33122 ft | 422 kts | 222° |
| 2026-04-28 21:35 | 54.93890 | 160.80011 | 32705 ft | 415 kts | 222° |
| 2026-04-28 21:36 | 54.91660 | 160.76878 | 32252 ft | 409 kts | 222° |
| 2026-04-28 21:36 | 54.89458 | 160.73791 | 31819 ft | 403 kts | 222° |
| 2026-04-28 21:36 | 54.87292 | 160.70758 | 31388 ft | 397 kts | 222° |
| 2026-04-28 21:36 | 54.85161 | 160.67777 | 30975 ft | 391 kts | 222° |
| 2026-04-28 21:37 | 54.83055 | 160.64835 | 30557 ft | 385 kts | 221° |
| 2026-04-28 21:37 | 54.80987 | 160.61948 | 30156 ft | 379 kts | 221° |
| 2026-04-28 21:37 | 54.78943 | 160.59101 | 29713 ft | 374 kts | 221° |
| 2026-04-28 21:37 | 54.76924 | 160.56295 | 29041 ft | 371 kts | 222° |
| 2026-04-28 21:38 | 54.74922 | 160.53521 | 28362 ft | 367 kts | 222° |
| 2026-04-28 21:38 | 54.72938 | 160.50774 | 27902 ft | 362 kts | 222° |
| 2026-04-28 21:38 | 54.70977 | 160.48059 | 27346 ft | 360 kts | 223° |
| 2026-04-28 21:38 | 54.69033 | 160.45370 | 26807 ft | 356 kts | 223° |
| 2026-04-28 21:39 | 54.67108 | 160.42711 | 26254 ft | 353 kts | 223° |
| 2026-04-28 21:39 | 54.65194 | 160.40071 | 25686 ft | 350 kts | 223° |
| 2026-04-28 21:39 | 54.63296 | 160.37456 | 25133 ft | 347 kts | 224° |
| 2026-04-28 21:39 | 54.61418 | 160.34871 | 24581 ft | 344 kts | 224° |
| 2026-04-28 21:40 | 54.59552 | 160.32305 | 24024 ft | 341 kts | 224° |
| 2026-04-28 21:40 | 54.57704 | 160.29766 | 23463 ft | 339 kts | 225° |
| 2026-04-28 21:40 | 54.55870 | 160.27248 | 22815 ft | 336 kts | 225° |
| 2026-04-28 21:40 | 54.54046 | 160.24742 | 22134 ft | 334 kts | 224° |
| 2026-04-28 21:41 | 54.52231 | 160.22252 | 21465 ft | 333 kts | 224° |
| 2026-04-28 21:41 | 54.50428 | 160.19780 | 20835 ft | 330 kts | 224° |
| 2026-04-28 21:41 | 54.48722 | 160.17446 | 20225 ft | 328 kts | 224° |
| 2026-04-28 21:41 | 54.46935 | 160.15005 | 19611 ft | 327 kts | 224° |
| 2026-04-28 21:42 | 54.45160 | 160.12585 | 19002 ft | 325 kts | 223° |
| 2026-04-28 21:42 | 54.43393 | 160.10179 | 18373 ft | 324 kts | 223° |
| 2026-04-28 21:42 | 54.41628 | 160.07779 | 17745 ft | 321 kts | 223° |
| 2026-04-28 21:42 | 54.39880 | 160.05402 | 17035 ft | 321 kts | 223° |
| 2026-04-28 21:43 | 54.38132 | 160.03029 | 16344 ft | 320 kts | 222° |
| 2026-04-28 21:43 | 54.36394 | 160.00673 | 15928 ft | 316 kts | 222° |
| 2026-04-28 21:43 | 54.34654 | 159.98314 | 15797 ft | 321 kts | 222° |
| 2026-04-28 21:43 | 54.32901 | 159.95942 | 15790 ft | 321 kts | 222° |
| 2026-04-28 21:44 | 54.31149 | 159.93575 | 15785 ft | 321 kts | 222° |
| 2026-04-28 21:44 | 54.29394 | 159.91206 | 15780 ft | 321 kts | 222° |
| 2026-04-28 21:44 | 54.27640 | 159.88844 | 15784 ft | 321 kts | 222° |
| 2026-04-28 21:44 | 54.25884 | 159.86479 | 15787 ft | 321 kts | 222° |
| 2026-04-28 21:45 | 54.24127 | 159.84115 | 15774 ft | 321 kts | 222° |
| 2026-04-28 21:45 | 54.22372 | 159.81757 | 15781 ft | 321 kts | 222° |
| 2026-04-28 21:45 | 54.20615 | 159.79397 | 15780 ft | 321 kts | 222° |
| 2026-04-28 21:45 | 54.18859 | 159.77035 | 15787 ft | 321 kts | 222° |
| 2026-04-28 21:46 | 54.17105 | 159.74673 | 15779 ft | 321 kts | 222° |
| 2026-04-28 21:46 | 54.15349 | 159.72310 | 15783 ft | 322 kts | 222° |
| 2026-04-28 21:46 | 54.13591 | 159.69949 | 15780 ft | 321 kts | 222° |
| 2026-04-28 21:46 | 54.11836 | 159.67596 | 15786 ft | 321 kts | 222° |
| 2026-04-28 21:47 | 54.10075 | 159.65235 | 15781 ft | 322 kts | 222° |
| 2026-04-28 21:47 | 54.08339 | 159.62910 | 15786 ft | 322 kts | 222° |
| 2026-04-28 21:47 | 54.06555 | 159.60526 | 15779 ft | 321 kts | 221° |
| 2026-04-28 21:47 | 54.05390 | 159.58969 | 15790 ft | 321 kts | 221° |
| 2026-04-28 21:48 | 54.03630 | 159.56620 | 15769 ft | 322 kts | 221° |
| 2026-04-28 21:48 | 54.01296 | 159.53510 | 15767 ft | 322 kts | 221° |
| 2026-04-28 21:48 | 53.99531 | 159.51162 | 15791 ft | 322 kts | 221° |
| 2026-04-28 21:48 | 53.97767 | 159.48815 | 15767 ft | 323 kts | 221° |
| 2026-04-28 21:49 | 53.95999 | 159.46468 | 15776 ft | 322 kts | 221° |
| 2026-04-28 21:49 | 53.94808 | 159.44889 | 15788 ft | 322 kts | 221° |
| 2026-04-28 21:49 | 53.93038 | 159.42544 | 15763 ft | 323 kts | 221° |
| 2026-04-28 21:49 | 53.91271 | 159.40201 | 15769 ft | 322 kts | 221° |
| 2026-04-28 21:50 | 53.89503 | 159.37862 | 15788 ft | 323 kts | 221° |
| 2026-04-28 21:50 | 53.87728 | 159.35518 | 15778 ft | 323 kts | 221° |
| 2026-04-28 21:50 | 53.85979 | 159.33210 | 15776 ft | 323 kts | 221° |
| 2026-04-28 21:50 | 53.84205 | 159.30871 | 15783 ft | 323 kts | 221° |
| 2026-04-28 21:51 | 53.82429 | 159.28531 | 15774 ft | 324 kts | 221° |
| 2026-04-28 21:51 | 53.80625 | 159.26159 | 15771 ft | 324 kts | 221° |
| 2026-04-28 21:51 | 53.78845 | 159.23819 | 15778 ft | 324 kts | 221° |
| 2026-04-28 21:51 | 53.77979 | 159.22686 | 15778 ft | 324 kts | 220° |
| 2026-04-28 21:52 | 53.76161 | 159.20342 | 15775 ft | 325 kts | 220° |
| 2026-04-28 21:52 | 53.74368 | 159.18029 | 15776 ft | 325 kts | 220° |
| 2026-04-28 21:52 | 53.72576 | 159.15702 | 15774 ft | 325 kts | 220° |
| 2026-04-28 21:52 | 53.70789 | 159.13369 | 15774 ft | 325 kts | 220° |
| 2026-04-28 21:53 | 53.69000 | 159.11029 | 15776 ft | 325 kts | 220° |
| 2026-04-28 21:53 | 53.67213 | 159.08690 | 15768 ft | 326 kts | 220° |
| 2026-04-28 21:53 | 53.65414 | 159.06368 | 15765 ft | 326 kts | 218° |
| 2026-04-28 21:53 | 53.63438 | 159.04472 | 15683 ft | 328 kts | 207° |
| 2026-04-28 21:54 | 53.61264 | 159.03239 | 15237 ft | 333 kts | 196° |
| 2026-04-28 21:54 | 53.58998 | 159.02510 | 14727 ft | 331 kts | 194° |
| 2026-04-28 21:54 | 53.56742 | 159.01792 | 14124 ft | 329 kts | 194° |
| 2026-04-28 21:54 | 53.54498 | 159.01056 | 13503 ft | 328 kts | 194° |
| 2026-04-28 21:55 | 53.52301 | 159.00313 | 12865 ft | 325 kts | 194° |
| 2026-04-28 21:55 | 53.50065 | 158.99545 | 12200 ft | 323 kts | 194° |
| 2026-04-28 21:55 | 53.47903 | 158.98801 | 11570 ft | 320 kts | 193° |
| 2026-04-28 21:55 | 53.45702 | 158.98046 | 11012 ft | 316 kts | 193° |
| 2026-04-28 21:56 | 53.43578 | 158.97321 | 10823 ft | 318 kts | 193° |
| 2026-04-28 21:56 | 53.41407 | 158.96582 | 10760 ft | 318 kts | 193° |
| 2026-04-28 21:56 | 53.39238 | 158.95846 | 10761 ft | 318 kts | 193° |
| 2026-04-28 21:56 | 53.37069 | 158.95113 | 10760 ft | 318 kts | 193° |
| 2026-04-28 21:57 | 53.34872 | 158.94371 | 10757 ft | 318 kts | 193° |
| 2026-04-28 21:57 | 53.32731 | 158.93649 | 10761 ft | 318 kts | 193° |
| 2026-04-28 21:57 | 53.30564 | 158.92918 | 10760 ft | 318 kts | 193° |
| 2026-04-28 21:57 | 53.28394 | 158.92187 | 10758 ft | 318 kts | 193° |
| 2026-04-28 21:58 | 53.26224 | 158.91456 | 10758 ft | 318 kts | 193° |
| 2026-04-28 21:58 | 53.24053 | 158.90724 | 10755 ft | 318 kts | 193° |
| 2026-04-28 21:58 | 53.21887 | 158.89996 | 10751 ft | 317 kts | 193° |
| 2026-04-28 21:58 | 53.19753 | 158.89283 | 10752 ft | 306 kts | 193° |
| 2026-04-28 21:59 | 53.17701 | 158.88597 | 10409 ft | 298 kts | 193° |
| 2026-04-28 21:59 | 53.15673 | 158.87916 | 9806 ft | 297 kts | 192° |
| 2026-04-28 21:59 | 53.13647 | 158.87234 | 9134 ft | 297 kts | 192° |
| 2026-04-28 22:00 | 53.09630 | 158.85882 | 7871 ft | 292 kts | 191° |
| 2026-04-28 22:00 | 53.07675 | 158.85228 | 7585 ft | 278 kts | 191° |
| 2026-04-28 22:00 | 53.05828 | 158.84612 | 7206 ft | 265 kts | 190° |
| 2026-04-28 22:00 | 53.04049 | 158.84022 | 7007 ft | 266 kts | 190° |
| 2026-04-28 22:01 | 53.02227 | 158.83421 | 6950 ft | 262 kts | 190° |
| 2026-04-28 22:01 | 53.00531 | 158.82855 | 6945 ft | 236 kts | 190° |
| 2026-04-28 22:01 | 52.98935 | 158.82324 | 6954 ft | 234 kts | 189° |
| 2026-04-28 22:01 | 52.97373 | 158.81686 | 6589 ft | 231 kts | 201° |
| 2026-04-28 22:02 | 52.96087 | 158.80106 | 5921 ft | 232 kts | 230° |
| 2026-04-28 22:02 | 52.95311 | 158.77775 | 5095 ft | 231 kts | 250° |
| 2026-04-28 22:02 | 52.94817 | 158.75248 | 4347 ft | 228 kts | 255° |
| 2026-04-28 22:02 | 52.94366 | 158.72722 | 4079 ft | 231 kts | 254° |
| 2026-04-28 22:03 | 52.93858 | 158.70199 | 3996 ft | 230 kts | 251° |
| 2026-04-28 22:03 | 52.93293 | 158.67723 | 4003 ft | 226 kts | 249° |
| 2026-04-28 22:03 | 52.92758 | 158.65365 | 3981 ft | 220 kts | 257° |
| 2026-04-28 22:03 | 52.92889 | 158.62907 | 3940 ft | 215 kts | 298° |
| 2026-04-28 22:04 | 52.93880 | 158.61165 | 3885 ft | 208 kts | 335° |
| 2026-04-28 22:04 | 52.95143 | 158.60212 | 3801 ft | 189 kts | 341° |
| 2026-04-28 22:04 | 52.96329 | 158.59365 | 3770 ft | 186 kts | 339° |
| 2026-04-28 22:04 | 52.97509 | 158.58478 | 3657 ft | 186 kts | 340° |
| 2026-04-28 22:05 | 52.98695 | 158.57668 | 3473 ft | 184 kts | 341° |
| 2026-04-28 22:05 | 52.99879 | 158.56851 | 3269 ft | 184 kts | 340° |
| 2026-04-28 22:05 | 53.01061 | 158.56035 | 3052 ft | 184 kts | 340° |
| 2026-04-28 22:05 | 53.02242 | 158.55221 | 2827 ft | 184 kts | 340° |
| 2026-04-28 22:06 | 53.03422 | 158.54407 | 2593 ft | 183 kts | 340° |
| 2026-04-28 22:06 | 53.04596 | 158.53598 | 2356 ft | 180 kts | 339° |
| 2026-04-28 22:06 | 53.05712 | 158.52826 | 2127 ft | 168 kts | 340° |
| 2026-04-28 22:06 | 53.06705 | 158.52141 | 1937 ft | 158 kts | 340° |
| 2026-04-28 22:07 | 53.07742 | 158.51431 | 1708 ft | 160 kts | 339° |
| 2026-04-28 22:07 | 53.08761 | 158.50724 | 1487 ft | 160 kts | 338° |
| 2026-04-28 22:07 | 53.09784 | 158.50025 | 1294 ft | 156 kts | 338° |
| 2026-04-28 22:07 | 53.10790 | 158.49335 | 1035 ft | 157 kts | 337° |
| 2026-04-28 22:08 | 53.11800 | 158.48653 | 845 ft | 157 kts | 337° |
| 2026-04-28 22:08 | 53.12810 | 158.47925 | 676 ft | 160 kts | 336° |
| 2026-04-28 22:08 | 53.13825 | 158.47215 | 481 ft | 158 kts | 337° |
| 2026-04-28 22:08 | 53.14840 | 158.46521 | 322 ft | 157 kts | 337° |
| 2026-04-28 22:09 | 53.15837 | 158.45813 | 146 ft | 152 kts | 336° |
| 2026-04-28 22:09 | 53.16694 | 158.45222 | 135 ft | 87 kts | 337° |
| 2026-04-28 22:09 | 53.17114 | 158.44926 | 126 ft | 65 kts | 338° |
| 2026-04-28 22:09 | 53.17503 | 158.44664 | 137 ft | 54 kts | 338° |
| 2026-04-28 22:10 | 53.17569 | 158.44501 | 136 ft | 16 kts | 256° |
| 2026-04-28 22:10 | 53.17521 | 158.44288 | 129 ft | 23 kts | 248° |
| 2026-04-28 22:10 | 53.17455 | 158.44030 | 134 ft | 26 kts | 243° |
| 2026-04-28 22:10 | 53.17351 | 158.43730 | 135 ft | 32 kts | 240° |
| 2026-04-28 22:11 | 53.17243 | 158.43414 | 134 ft | 31 kts | 240° |
| 2026-04-28 22:11 | 53.17134 | 158.43111 | 131 ft | 31 kts | 239° |
| 2026-04-28 22:11 | 53.17027 | 158.42818 | 135 ft | 18 kts | 226° |
| 2026-04-28 22:11 | 53.16955 | 158.42762 | 135 ft | 13 kts | 223° |
| 2026-04-28 22:12 | 53.16927 | 158.42702 | 135 ft | 0 kts | 233° |